Great Falls/Malmstrom AFB, Montana
Current Conditions -  °F | °C
As of 10:53 AM on Thursday 23 Oct 2014 (Local Time) from KGTF Reporting Station
Clear Clear  
Wind Chill: 14°   Ceiling: Unl
Heat Index: 14°   Visibility: 10mi
Dew Point:   Wind: 22mph
Humidity: 47%   Direction: 230°SW
Pressure: 29.83"   Gusts: 32mph
Location:  47.47°N, 111.32°W
Report Text: KGTF 231653Z 23019G28KT 10SM CLR 14/03 A2983 RMK AO2 PK WND 22030/1639 SLP098 T01390028
Loading
Personal Weather Stations






























Interactive Weather Map
Tropical Storm Tracking
New forecast layout! Learn more

10-Day Weather Forecast

Advertisements
Track Severe Weather on mobile